Time;durP1;ratioP1;P1;durP2;ratioP2;P2;SDS_P1;SDS_P2;PMS_P1;PMS_P2;Temp;Humidity;BMP_temperature;BMP_pressure;BME280_temperature;BME280_humidity;BME280_pressure;Samples;Min_cycle;Max_cycle;Signal;HPM_P1;HPM_P2
2023/08/15 00:00:48;;;;;;;6.50;3.37;;;;;;;21.33;100.00;100481.81;6283913;23;20021;-74
2023/08/15 00:03:18;;;;;;;7.25;3.40;;;;;;;21.26;100.00;100471.78;6280193;23;20254;-74
2023/08/15 00:05:48;;;;;;;6.40;3.65;;;;;;;21.24;100.00;100479.88;6255423;23;20027;-73
2023/08/15 00:08:18;;;;;;;7.40;3.80;;;;;;;21.22;100.00;100478.31;6277897;23;20025;-75
2023/08/15 00:10:49;;;;;;;6.93;3.55;;;;;;;21.13;100.00;100484.38;6282169;23;20024;-75
2023/08/15 00:13:19;;;;;;;7.53;3.60;;;;;;;21.09;100.00;100485.59;6280969;23;20028;-74
2023/08/15 00:15:49;;;;;;;8.40;3.17;;;;;;;21.10;100.00;100489.94;6280685;23;20103;-74
2023/08/15 00:18:20;;;;;;;7.70;3.60;;;;;;;21.08;100.00;100487.38;6286592;23;20406;-75
2023/08/15 00:20:50;;;;;;;4.80;3.15;;;;;;;21.10;100.00;100487.28;6254693;23;20020;-75
2023/08/15 00:23:20;;;;;;;6.93;3.13;;;;;;;21.07;100.00;100487.53;6278042;23;20568;-75
2023/08/15 00:25:50;;;;;;;5.22;3.10;;;;;;;21.04;100.00;100488.63;6280815;23;20036;-75
2023/08/15 00:28:21;;;;;;;6.60;3.03;;;;;;;20.98;100.00;100480.28;6282761;23;20493;-74
2023/08/15 00:30:51;;;;;;;5.60;3.25;;;;;;;20.97;100.00;100486.56;6287124;23;20255;-75
2023/08/15 00:33:21;;;;;;;5.03;3.50;;;;;;;20.93;100.00;100477.16;6284205;23;20023;-75
2023/08/15 00:35:52;;;;;;;7.38;3.25;;;;;;;20.91;100.00;100476.44;6284816;23;20346;-75
2023/08/15 00:38:22;;;;;;;5.40;3.20;;;;;;;20.91;100.00;100465.81;6290164;23;20518;-75
2023/08/15 00:40:52;;;;;;;5.60;2.80;;;;;;;20.85;100.00;100472.44;6257082;23;20020;-75
2023/08/15 00:43:23;;;;;;;7.67;3.20;;;;;;;20.87;100.00;100470.50;6274431;23;20016;-75
2023/08/15 00:45:53;;;;;;;6.03;3.05;;;;;;;20.82;100.00;100469.13;6272191;23;20385;-74
2023/08/15 00:48:29;;;;;;;5.82;3.13;;;;;;;20.83;100.00;100473.50;6219636;22;20067;-72
2023/08/15 00:51:01;;;;;;;4.43;3.00;;;;;;;20.84;100.00;100465.44;5227402;28;20521;-74
2023/08/15 00:53:33;;;;;;;5.70;3.13;;;;;;;20.82;100.00;100466.47;5231683;28;20448;-74
2023/08/15 00:56:04;;;;;;;6.28;3.13;;;;;;;20.80;100.00;100473.72;5226691;28;20040;-74
2023/08/15 00:58:35;;;;;;;4.75;3.25;;;;;;;20.72;100.00;100466.38;5234799;28;20491;-73
2023/08/15 01:01:05;;;;;;;4.05;2.80;;;;;;;20.62;100.00;100461.06;5237105;28;20037;-73
2023/08/15 01:03:36;;;;;;;10.95;3.38;;;;;;;20.57;100.00;100455.25;5238551;28;20417;-74
2023/08/15 01:06:06;;;;;;;6.95;2.80;;;;;;;20.53;100.00;100459.97;5237079;28;20383;-74
2023/08/15 01:08:36;;;;;;;9.40;2.90;;;;;;;20.51;100.00;100451.25;5236449;28;20039;-74
2023/08/15 01:11:07;;;;;;;5.13;3.20;;;;;;;20.51;100.00;100453.91;5236613;28;20064;-74
2023/08/15 01:13:48;;;;;;;5.93;3.00;;;;;;;20.50;100.00;100460.19;5237711;28;20320;-74
2023/08/15 01:16:27;;;;;;;6.22;3.20;;;;;;;20.48;100.00;100471.91;5236679;28;20103;-74
2023/08/15 01:19:05;;;;;;;6.05;2.53;;;;;;;20.47;100.00;100471.06;5234519;28;20013;-74
2023/08/15 01:21:42;;;;;;;6.32;2.80;;;;;;;20.50;100.00;100459.38;5237910;28;20028;-73
2023/08/15 01:24:12;;;;;;;5.95;2.58;;;;;;;20.56;100.00;100457.09;5236683;28;20035;-74
2023/08/15 01:26:42;;;;;;;5.78;2.60;;;;;;;20.54;100.00;100445.75;5238735;28;20482;-74
2023/08/15 01:29:13;;;;;;;7.57;2.53;;;;;;;20.53;100.00;100441.38;5236785;28;20025;-74
2023/08/15 01:31:53;;;;;;;5.72;2.50;;;;;;;20.52;100.00;100445.00;5238307;28;20056;-74
2023/08/15 01:34:38;;;;;;;5.32;2.53;;;;;;;20.52;100.00;100436.19;5235356;28;20485;-73
2023/08/15 01:37:19;;;;;;;3.75;2.40;;;;;;;20.57;100.00;100432.22;5237063;28;20020;-74
2023/08/15 01:39:51;;;;;;;4.97;2.30;;;;;;;20.52;100.00;100437.03;5236814;28;20115;-74
2023/08/15 01:42:23;;;;;;;6.50;2.42;;;;;;;20.52;100.00;100434.41;5235296;28;20032;-74
2023/08/15 01:44:54;;;;;;;7.10;2.90;;;;;;;20.50;100.00;100428.31;5233063;28;20081;-74
2023/08/15 01:47:24;;;;;;;4.32;2.50;;;;;;;20.50;100.00;100428.31;5235355;28;20024;-74
2023/08/15 01:49:54;;;;;;;6.13;2.50;;;;;;;20.48;100.00;100426.78;5234746;28;20048;-73
2023/08/15 01:52:25;;;;;;;6.20;2.50;;;;;;;20.45;100.00;100427.03;5237563;28;20036;-74
2023/08/15 01:54:55;;;;;;;5.78;2.80;;;;;;;20.52;100.00;100428.22;5240241;28;20059;-72
2023/08/15 01:57:25;;;;;;;7.53;2.92;;;;;;;20.54;100.00;100427.16;5241198;28;20052;-73
2023/08/15 01:59:55;;;;;;;4.05;2.28;;;;;;;20.53;100.00;100422.81;5240670;28;20067;-73
2023/08/15 02:02:26;;;;;;;4.65;2.63;;;;;;;20.47;100.00;100425.91;5239105;28;20034;-74
2023/08/15 02:05:01;;;;;;;3.45;2.25;;;;;;;20.51;100.00;100426.53;5241003;28;20024;-73
2023/08/15 02:07:31;;;;;;;5.25;2.50;;;;;;;20.42;100.00;100428.09;5254541;28;20024;-74
2023/08/15 02:10:02;;;;;;;4.07;2.42;;;;;;;20.43;100.00;100426.31;5239077;28;20024;-73
2023/08/15 02:12:32;;;;;;;5.30;2.53;;;;;;;20.45;100.00;100430.50;5241540;28;20027;-74
2023/08/15 02:15:04;;;;;;;3.95;2.28;;;;;;;20.40;100.00;100429.16;5240639;28;20413;-73
2023/08/15 02:17:34;;;;;;;4.85;2.35;;;;;;;20.33;100.00;100415.53;5241170;28;20498;-74
2023/08/15 02:20:05;;;;;;;7.25;2.70;;;;;;;20.31;100.00;100421.94;5239584;28;20060;-74
2023/08/15 02:22:36;;;;;;;6.00;2.40;;;;;;;20.29;100.00;100424.69;5239698;28;20046;-74
2023/08/15 02:25:06;;;;;;;4.53;2.30;;;;;;;20.27;100.00;100417.84;5240200;28;20157;-74
2023/08/15 02:27:36;;;;;;;4.63;2.38;;;;;;;20.23;100.00;100425.19;5241311;28;20118;-74
2023/08/15 02:30:08;;;;;;;6.43;2.50;;;;;;;20.22;100.00;100434.13;5239669;28;20410;-74
2023/08/15 02:32:38;;;;;;;4.38;2.50;;;;;;;20.22;100.00;100436.78;5241879;28;20516;-74
2023/08/15 02:35:09;;;;;;;6.15;2.72;;;;;;;20.27;100.00;100423.97;5239531;28;20059;-74
2023/08/15 02:37:39;;;;;;;5.85;2.38;;;;;;;20.26;100.00;100429.44;5240869;28;20359;-74
2023/08/15 02:40:10;;;;;;;6.85;2.33;;;;;;;20.21;100.00;100427.13;5239470;28;20678;-74
2023/08/15 02:42:40;;;;;;;4.60;2.20;;;;;;;20.19;100.00;100417.56;5238279;28;20063;-74
2023/08/15 02:45:11;;;;;;;5.47;2.63;;;;;;;20.16;100.00;100425.78;5239152;28;20036;-74
2023/08/15 02:47:41;;;;;;;6.35;2.60;;;;;;;20.11;100.00;100430.59;5239856;28;20024;-74
2023/08/15 02:50:12;;;;;;;6.07;2.20;;;;;;;20.07;100.00;100437.94;5238780;28;20558;-74
2023/08/15 02:52:42;;;;;;;5.95;2.42;;;;;;;20.01;100.00;100435.75;5241147;28;20035;-74
2023/08/15 02:55:12;;;;;;;3.85;2.00;;;;;;;20.01;100.00;100427.78;5239832;28;20478;-74
2023/08/15 02:57:43;;;;;;;5.68;2.53;;;;;;;19.86;100.00;100431.59;5240608;28;20036;-74
2023/08/15 03:00:13;;;;;;;5.30;2.10;;;;;;;19.89;100.00;100431.34;5239986;28;20474;-73
2023/08/15 03:02:44;;;;;;;3.95;2.00;;;;;;;19.92;100.00;100436.44;5240376;28;20052;-74
2023/08/15 03:05:14;;;;;;;4.30;2.00;;;;;;;20.05;100.00;100433.72;5239517;28;20024;-73
2023/08/15 03:07:44;;;;;;;4.95;2.10;;;;;;;20.03;100.00;100433.84;5240311;28;20100;-74
2023/08/15 03:10:15;;;;;;;4.53;2.35;;;;;;;19.96;100.00;100437.88;5239252;28;20028;-73
2023/08/15 03:12:45;;;;;;;4.05;2.00;;;;;;;19.94;100.00;100434.50;5240854;28;20071;-74
2023/08/15 03:15:15;;;;;;;5.30;2.20;;;;;;;19.89;100.00;100441.09;5254258;28;20029;-73
2023/08/15 03:17:45;;;;;;;5.65;2.20;;;;;;;19.86;100.00;100451.94;5255271;28;20033;-73
2023/08/15 03:20:16;;;;;;;4.25;2.17;;;;;;;19.77;100.00;100448.19;5237269;28;20398;-74
2023/08/15 03:22:46;;;;;;;6.88;2.38;;;;;;;19.73;100.00;100456.47;5240216;28;20516;-72
2023/08/15 03:25:16;;;;;;;5.30;2.10;;;;;;;19.65;100.00;100449.09;5237454;28;20039;-74
2023/08/15 03:27:47;;;;;;;5.80;2.08;;;;;;;19.72;100.00;100449.50;5239876;28;20361;-72
2023/08/15 03:30:17;;;;;;;4.38;2.13;;;;;;;19.57;100.00;100459.44;5238191;28;20074;-73
2023/08/15 03:32:47;;;;;;;5.22;1.90;;;;;;;19.49;100.00;100453.88;5238000;28;20028;-72
2023/08/15 03:35:18;;;;;;;6.05;2.00;;;;;;;19.43;100.00;100450.81;5238317;28;20461;-74
2023/08/15 03:37:48;;;;;;;3.60;2.17;;;;;;;19.47;100.00;100454.94;5238053;28;20055;-72
2023/08/15 03:40:18;;;;;;;8.07;2.30;;;;;;;19.51;100.00;100451.94;5239180;28;20103;-73
2023/08/15 03:42:49;;;;;;;5.72;2.15;;;;;;;19.48;100.00;100456.63;5238666;28;20321;-73
2023/08/15 03:45:19;;;;;;;3.97;2.47;;;;;;;19.49;100.00;100448.56;5239626;28;20414;-73
2023/08/15 03:47:49;;;;;;;5.10;1.80;;;;;;;19.52;100.00;100451.00;5239395;28;20032;-73
2023/08/15 03:50:20;;;;;;;7.10;2.10;;;;;;;19.46;100.00;100459.38;5238670;28;20032;-73
2023/08/15 03:52:50;;;;;;;5.95;2.15;;;;;;;19.38;100.00;100451.16;5238762;28;20056;-73
2023/08/15 03:55:20;;;;;;;3.95;1.90;;;;;;;19.36;100.00;100450.44;5239295;28;20039;-73
2023/08/15 03:57:50;;;;;;;5.38;2.10;;;;;;;19.41;100.00;100447.44;5238797;28;20030;-74
2023/08/15 04:00:21;;;;;;;4.30;2.13;;;;;;;19.39;100.00;100452.84;5237780;28;20462;-74
2023/08/15 04:02:52;;;;;;;5.07;2.00;;;;;;;19.43;100.00;100459.59;5238718;28;20295;-73
2023/08/15 04:05:24;;;;;;;7.15;2.10;;;;;;;19.50;100.00;100455.56;5238779;28;20529;-74
2023/08/15 04:07:54;;;;;;;4.82;2.00;;;;;;;19.55;100.00;100455.19;5235577;28;20257;-74
2023/08/15 04:10:24;;;;;;;4.88;2.10;;;;;;;19.50;100.00;100460.88;5239110;28;20029;-73
2023/08/15 04:12:55;;;;;;;5.40;2.00;;;;;;;19.47;100.00;100455.78;5238833;28;20539;-74
2023/08/15 04:15:25;;;;;;;9.88;2.10;;;;;;;19.52;100.00;100455.44;5236716;28;20157;-73
2023/08/15 04:17:56;;;;;;;3.17;1.97;;;;;;;19.52;100.00;100461.59;5238533;28;20031;-74
2023/08/15 04:20:26;;;;;;;8.48;2.10;;;;;;;19.44;100.00;100455.16;5237953;28;20365;-74
2023/08/15 04:22:56;;;;;;;4.72;2.08;;;;;;;19.54;100.00;100451.72;5238149;28;20028;-74
2023/08/15 04:25:26;;;;;;;3.25;1.73;;;;;;;19.56;100.00;100439.19;5238521;28;20119;-74
2023/08/15 04:27:57;;;;;;;6.10;2.17;;;;;;;19.56;100.00;100444.50;5238483;28;20108;-74
2023/08/15 04:30:29;;;;;;;3.72;1.90;;;;;;;19.54;100.00;100446.41;5237568;28;20443;-74
2023/08/15 04:33:00;;;;;;;4.72;1.80;;;;;;;19.59;100.00;100448.75;5236681;28;20036;-74
2023/08/15 04:35:30;;;;;;;4.28;2.08;;;;;;;19.60;100.00;100448.59;5238346;28;20055;-74
2023/08/15 04:38:00;;;;;;;7.10;2.20;;;;;;;19.64;100.00;100436.81;5236225;28;20474;-73
2023/08/15 04:40:35;;;;;;;3.88;2.00;;;;;;;19.68;100.00;100442.72;5237727;28;20401;-74
2023/08/15 04:43:06;;;;;;;4.20;2.10;;;;;;;19.76;100.00;100448.31;5236687;28;20032;-74
2023/08/15 04:45:40;;;;;;;6.38;1.60;;;;;;;19.81;100.00;100446.16;5253500;28;20051;-74
2023/08/15 04:48:11;;;;;;;5.10;1.98;;;;;;;19.79;100.00;100448.09;5238088;28;20272;-73
2023/08/15 04:50:41;;;;;;;4.70;2.10;;;;;;;19.86;100.00;100436.91;5237931;28;20028;-74
2023/08/15 04:53:12;;;;;;;6.15;1.95;;;;;;;20.06;100.00;100444.22;5235863;28;20032;-73
2023/08/15 04:55:42;;;;;;;4.85;1.90;;;;;;;20.10;100.00;100448.31;5239087;28;20394;-74
2023/08/15 04:58:12;;;;;;;5.15;1.88;;;;;;;20.12;100.00;100453.53;5237662;28;20029;-73
2023/08/15 05:00:43;;;;;;;3.80;1.63;;;;;;;20.28;100.00;100459.34;5234993;28;20028;-73
2023/08/15 05:03:13;;;;;;;4.53;1.75;;;;;;;20.74;100.00;100467.09;5252532;28;20283;-74
2023/08/15 05:05:43;;;;;;;5.97;1.65;;;;;;;21.46;100.00;100473.66;5237181;28;20040;-73
2023/08/15 05:08:14;;;;;;;4.45;1.40;;;;;;;22.67;100.00;100471.25;5235065;28;20066;-74
2023/08/15 05:10:44;;;;;;;3.08;1.50;;;;;;;23.54;100.00;100476.75;5238477;28;20020;-74
2023/08/15 05:13:15;;;;;;;2.75;1.60;;;;;;;24.54;100.00;100494.00;5236884;28;20028;-72
2023/08/15 05:15:45;;;;;;;3.03;1.25;;;;;;;25.28;93.64;100501.91;5239106;28;20059;-74
2023/08/15 05:18:16;;;;;;;2.10;1.40;;;;;;;25.85;90.38;100509.56;5236908;28;20544;-74
2023/08/15 05:20:47;;;;;;;2.60;1.30;;;;;;;26.14;91.04;100488.75;5239046;28;20099;-74
2023/08/15 05:23:19;;;;;;;3.30;1.17;;;;;;;26.35;85.72;100480.38;5237689;28;20016;-73
2023/08/15 05:25:50;;;;;;;10.15;1.42;;;;;;;25.68;91.01;100493.50;5237666;28;20069;-73
2023/08/15 05:28:20;;;;;;;3.10;1.53;;;;;;;24.53;100.00;100497.69;5237984;28;20425;-73
2023/08/15 05:30:50;;;;;;;5.77;1.43;;;;;;;25.14;94.98;100490.84;5236839;28;20078;-73
2023/08/15 05:33:21;;;;;;;3.30;1.50;;;;;;;24.48;98.48;100494.56;5238375;28;20767;-73
2023/08/15 05:35:52;;;;;;;3.30;1.50;;;;;;;24.25;98.88;100508.41;5237925;28;20306;-73
2023/08/15 05:38:22;;;;;;;3.25;1.40;;;;;;;23.43;100.00;100504.41;5236329;28;21065;-73
2023/08/15 05:40:52;;;;;;;2.87;1.30;;;;;;;22.84;100.00;100519.44;5238282;28;20036;-73
2023/08/15 05:43:23;;;;;;;5.22;1.63;;;;;;;23.86;100.00;100518.25;5236898;28;20267;-73
2023/08/15 05:45:53;;;;;;;4.90;1.70;;;;;;;24.41;100.00;100512.16;5237888;28;20085;-73
2023/08/15 05:48:23;;;;;;;3.47;1.40;;;;;;;23.59;100.00;100512.72;5238229;28;20078;-73
2023/08/15 05:50:53;;;;;;;3.73;1.67;;;;;;;23.31;100.00;100494.81;5234845;28;20286;-74
2023/08/15 05:53:24;;;;;;;3.97;1.60;;;;;;;23.02;100.00;100503.69;5238309;28;20365;-74
2023/08/15 05:55:54;;;;;;;3.20;1.50;;;;;;;22.94;100.00;100507.00;5252803;28;20305;-73
2023/08/15 05:58:24;;;;;;;3.13;1.40;;;;;;;22.93;100.00;100499.13;5237528;28;20294;-74
2023/08/15 06:00:55;;;;;;;5.07;1.45;;;;;;;22.98;100.00;100479.09;5237561;28;20029;-74
2023/08/15 06:03:25;;;;;;;4.47;1.63;;;;;;;22.71;100.00;100486.81;5236929;28;20558;-73
2023/08/15 06:05:56;;;;;;;2.22;1.40;;;;;;;22.88;100.00;100486.19;5236443;28;20021;-73
2023/08/15 06:08:26;;;;;;;4.63;1.48;;;;;;;22.93;100.00;100493.81;5235591;28;20036;-73
2023/08/15 06:10:56;;;;;;;4.10;1.70;;;;;;;22.82;100.00;100502.75;5236431;28;20047;-73
2023/08/15 06:13:26;;;;;;;3.83;1.70;;;;;;;22.98;100.00;100513.75;5236850;28;20282;-73
2023/08/15 06:15:57;;;;;;;3.83;1.88;;;;;;;22.90;100.00;100529.59;5236612;28;20527;-74
2023/08/15 06:18:27;;;;;;;3.10;1.65;;;;;;;22.95;100.00;100516.69;5235328;28;20074;-73
2023/08/15 06:20:58;;;;;;;3.42;1.90;;;;;;;22.98;100.00;100508.44;5237741;28;20478;-73
2023/08/15 06:23:28;;;;;;;5.85;2.30;;;;;;;23.08;100.00;100508.47;5233998;28;20031;-74
2023/08/15 06:25:58;;;;;;;6.47;2.00;;;;;;;23.45;100.00;100515.78;5237772;28;20074;-73
2023/08/15 06:28:29;;;;;;;4.22;2.00;;;;;;;23.11;100.00;100518.84;5237385;28;20281;-74
2023/08/15 06:30:59;;;;;;;5.32;2.20;;;;;;;23.18;100.00;100531.53;5236237;28;20060;-73
2023/08/15 06:33:30;;;;;;;3.58;1.88;;;;;;;23.39;100.00;100529.63;5237188;28;20033;-73
2023/08/15 06:36:00;;;;;;;4.93;1.98;;;;;;;23.42;100.00;100529.41;5236760;28;20436;-74
2023/08/15 06:38:30;;;;;;;5.88;2.00;;;;;;;23.52;100.00;100540.09;5238033;28;20191;-74
2023/08/15 06:41:02;;;;;;;5.43;2.25;;;;;;;23.84;100.00;100544.25;5240608;28;20056;-74
2023/08/15 06:43:32;;;;;;;5.88;2.10;;;;;;;23.98;100.00;100549.16;5240501;28;20051;-73
2023/08/15 06:46:03;;;;;;;7.50;1.97;;;;;;;24.18;100.00;100561.53;5238534;28;20024;-74
2023/08/15 06:48:34;;;;;;;6.72;2.10;;;;;;;24.04;100.00;100580.66;5237978;28;20270;-74
2023/08/15 06:51:04;;;;;;;4.90;1.85;;;;;;;23.89;100.00;100590.03;5247780;22;20033;-73
2023/08/15 06:53:34;;;;;;;3.63;2.03;;;;;;;23.57;100.00;100596.56;5228516;28;20167;-74
2023/08/15 06:56:05;;;;;;;6.10;1.80;;;;;;;23.62;100.00;100608.53;5230400;28;20024;-74
2023/08/15 06:58:35;;;;;;;4.20;2.10;;;;;;;23.46;100.00;100610.84;5228589;28;20116;-74
2023/08/15 07:01:06;;;;;;;4.68;2.10;;;;;;;23.35;100.00;100624.28;5230533;28;20667;-74
2023/08/15 07:03:36;;;;;;;5.28;2.30;;;;;;;23.10;100.00;100624.69;5230295;28;20036;-74
2023/08/15 07:06:06;;;;;;;6.80;2.17;;;;;;;23.09;100.00;100643.50;5230046;28;20220;-74
2023/08/15 07:08:38;;;;;;;5.85;2.30;;;;;;;23.07;100.00;100640.97;5228805;28;20028;-73
2023/08/15 07:11:08;;;;;;;6.85;2.55;;;;;;;22.84;100.00;100644.72;5230699;28;20040;-73
2023/08/15 07:13:38;;;;;;;5.90;2.40;;;;;;;22.68;100.00;100633.69;5232513;28;20024;-73
2023/08/15 07:16:09;;;;;;;5.85;2.30;;;;;;;22.67;100.00;100659.63;5232008;28;20499;-73
2023/08/15 07:18:39;;;;;;;6.43;2.33;;;;;;;22.58;100.00;100669.22;5227082;28;20276;-74
2023/08/15 07:21:09;;;;;;;9.68;2.55;;;;;;;22.42;100.00;100667.97;5225764;28;20024;-74
2023/08/15 07:23:40;;;;;;;5.88;2.58;;;;;;;22.40;100.00;100664.59;5229386;28;20494;-73
2023/08/15 07:26:10;;;;;;;3.83;2.20;;;;;;;22.21;100.00;100656.38;5223504;28;20052;-74
2023/08/15 07:28:40;;;;;;;5.53;2.47;;;;;;;22.22;100.00;100660.75;5229177;28;20028;-73
2023/08/15 07:31:11;;;;;;;7.43;2.20;;;;;;;22.12;100.00;100649.97;5227665;28;20036;-73
2023/08/15 07:33:41;;;;;;;4.32;1.90;;;;;;;22.22;100.00;100677.56;5229493;28;20374;-73
2023/08/15 07:36:11;;;;;;;2.65;1.77;;;;;;;21.93;100.00;100683.56;5229947;28;20051;-73
2023/08/15 07:38:41;;;;;;;3.83;2.17;;;;;;;21.75;100.00;100658.44;5228086;28;20454;-73
2023/08/15 07:41:12;;;;;;;3.43;1.77;;;;;;;21.58;100.00;100648.25;5229265;28;20283;-73
2023/08/15 07:43:42;;;;;;;3.35;1.50;;;;;;;21.51;100.00;100620.44;5229523;28;20353;-73
2023/08/15 07:46:12;;;;;;;4.57;1.60;;;;;;;21.47;100.00;100598.56;5228946;28;20047;-73
2023/08/15 07:48:43;;;;;;;4.20;1.40;;;;;;;21.49;100.00;100601.09;5227063;28;20290;-73
2023/08/15 07:51:14;;;;;;;2.05;0.95;;;;;;;21.46;100.00;100585.38;5229092;28;20761;-73
2023/08/15 07:53:44;;;;;;;2.38;1.00;;;;;;;21.46;100.00;100577.41;5225141;28;20108;-73
2023/08/15 07:56:14;;;;;;;2.43;1.20;;;;;;;21.70;100.00;100572.78;5229032;28;20500;-73
2023/08/15 07:58:45;;;;;;;5.30;0.88;;;;;;;22.57;100.00;100560.13;5227125;28;20272;-74
2023/08/15 08:01:15;;;;;;;3.40;1.00;;;;;;;24.26;100.00;100543.00;5232145;28;20028;-74
2023/08/15 08:03:45;;;;;;;3.30;0.70;;;;;;;25.52;100.00;100552.22;5228364;28;20478;-72
2023/08/15 08:06:15;;;;;;;2.33;0.90;;;;;;;26.97;96.56;100566.81;5228853;28;20036;-73
2023/08/15 08:08:46;;;;;;;2.40;0.70;;;;;;;26.14;100.00;100562.97;5227610;28;20318;-74
2023/08/15 08:11:16;;;;;;;4.03;0.90;;;;;;;27.64;93.51;100556.91;5230460;28;20357;-74
2023/08/15 08:13:46;;;;;;;1.30;0.50;;;;;;;27.04;95.24;100568.69;5228213;28;20634;-74
2023/08/15 08:16:17;;;;;;;2.17;0.60;;;;;;;26.21;100.00;100598.84;5230611;28;20279;-74
2023/08/15 08:18:47;;;;;;;1.33;0.70;;;;;;;26.12;100.00;100599.75;5228042;28;20733;-73
2023/08/15 08:21:18;;;;;;;0.70;0.60;;;;;;;26.97;99.63;100583.75;5229100;28;20028;-74
2023/08/15 08:23:48;;;;;;;1.80;0.70;;;;;;;28.08;92.13;100570.97;5228095;28;20064;-72
2023/08/15 08:26:18;;;;;;;1.13;0.60;;;;;;;30.39;84.04;100575.72;5231468;28;20278;-74
2023/08/15 08:28:48;;;;;;;1.10;0.50;;;;;;;28.40;91.53;100579.97;5227261;28;20033;-74
2023/08/15 08:31:19;;;;;;;1.13;0.50;;;;;;;27.25;95.58;100569.16;5230152;28;20028;-74
2023/08/15 08:33:49;;;;;;;0.70;0.40;;;;;;;27.70;96.74;100588.50;5227624;28;20902;-73
2023/08/15 08:36:19;;;;;;;0.97;0.50;;;;;;;27.45;95.01;100599.31;5230974;28;20035;-74
2023/08/15 08:38:50;;;;;;;1.92;0.70;;;;;;;26.64;99.57;100596.25;5226542;28;20275;-73
2023/08/15 08:41:21;;;;;;;1.58;0.90;;;;;;;27.04;99.08;100600.06;5231636;28;20127;-73
2023/08/15 08:43:52;;;;;;;0.80;0.63;;;;;;;26.62;100.00;100598.25;5225940;28;20036;-73
2023/08/15 08:46:22;;;;;;;1.73;0.50;;;;;;;26.35;100.00;100609.06;5228874;28;20029;-74
2023/08/15 08:48:52;;;;;;;1.23;0.60;;;;;;;28.47;91.71;100607.03;5226269;28;20374;-74
2023/08/15 08:51:24;;;;;;;2.15;0.80;;;;;;;29.30;90.84;100611.00;5219681;28;20024;-74
2023/08/15 08:53:54;;;;;;;0.98;0.47;;;;;;;27.52;93.40;100608.41;5227383;28;20021;-74
2023/08/15 08:56:27;;;;;;;1.73;0.70;;;;;;;28.06;92.49;100624.91;5224718;28;20037;-74
2023/08/15 08:59:05;;;;;;;3.10;0.60;;;;;;;28.53;89.14;100626.03;5220675;28;20279;-74
2023/08/15 09:01:37;;;;;;;1.20;0.60;;;;;;;29.04;88.48;100623.84;5224232;28;20017;-75
2023/08/15 09:04:08;;;;;;;1.10;0.73;;;;;;;29.53;85.92;100628.13;5227554;28;20043;-74
2023/08/15 09:06:38;;;;;;;1.38;0.70;;;;;;;29.50;83.04;100615.00;5228754;28;20206;-73
2023/08/15 09:09:09;;;;;;;1.57;0.50;;;;;;;30.27;82.50;100611.41;5228682;28;20475;-75
2023/08/15 09:11:39;;;;;;;3.97;0.77;;;;;;;31.51;77.60;100617.88;5225890;28;20032;-74
2023/08/15 09:14:10;;;;;;;1.55;0.70;;;;;;;31.33;78.06;100622.81;5228027;28;20391;-74
2023/08/15 09:16:47;;;;;;;0.80;0.50;;;;;;;30.78;78.03;100621.50;5227605;28;20075;-73
2023/08/15 09:19:17;;;;;;;1.20;0.60;;;;;;;30.27;81.98;100625.72;5228879;28;20048;-74
2023/08/15 09:21:48;;;;;;;1.93;0.60;;;;;;;29.32;83.28;100630.50;5223136;28;20481;-72
2023/08/15 09:24:18;;;;;;;1.67;0.70;;;;;;;29.07;86.58;100626.19;5223196;28;20267;-74
2023/08/15 09:26:48;;;;;;;1.00;0.63;;;;;;;29.61;83.39;100629.94;5214111;28;20029;-72
2023/08/15 09:29:19;;;;;;;1.93;0.77;;;;;;;28.98;85.35;100624.53;5220391;28;20521;-74
2023/08/15 09:31:49;;;;;;;1.77;0.90;;;;;;;28.81;84.78;100632.75;5216609;28;20288;-73
2023/08/15 09:34:20;;;;;;;1.17;0.73;;;;;;;28.96;85.74;100633.78;5228225;28;20361;-74
2023/08/15 09:36:50;;;;;;;1.87;0.90;;;;;;;28.31;87.90;100639.28;5225597;28;20301;-73
2023/08/15 09:39:21;;;;;;;3.35;1.00;;;;;;;28.25;88.90;100627.31;5228130;28;20263;-74
2023/08/15 09:41:52;;;;;;;5.25;1.35;;;;;;;28.60;88.02;100636.94;5221289;28;20161;-72
2023/08/15 09:44:36;;;;;;;2.75;1.10;;;;;;;28.85;85.55;100643.00;5228545;28;20043;-76
2023/08/15 09:47:07;;;;;;;2.10;1.00;;;;;;;28.57;88.78;100632.75;5227286;28;20033;-76
2023/08/15 09:49:38;;;;;;;4.47;1.67;;;;;;;28.83;90.46;100636.09;5227852;28;20047;-75
2023/08/15 09:52:10;;;;;;;5.68;1.60;;;;;;;28.60;87.90;100636.94;5224569;28;20428;-75
2023/08/15 09:54:41;;;;;;;2.92;1.33;;;;;;;29.02;89.09;100633.06;5223832;28;20036;-75
2023/08/15 09:57:11;;;;;;;2.97;1.40;;;;;;;28.94;86.31;100627.72;5223813;28;20041;-74
2023/08/15 09:59:42;;;;;;;3.17;1.38;;;;;;;28.37;88.18;100626.03;5224787;28;20021;-72
2023/08/15 10:02:22;;;;;;;2.67;1.38;;;;;;;28.34;91.26;100626.31;5219500;28;20044;-74
2023/08/15 10:05:06;;;;;;;2.38;1.27;;;;;;;28.07;90.82;100631.13;5216423;28;20025;-73
2023/08/15 10:07:37;;;;;;;2.35;1.10;;;;;;;27.97;91.55;100633.13;5225456;28;20037;-75
2023/08/15 10:10:08;;;;;;;2.17;1.20;;;;;;;28.23;88.13;100634.69;5221489;28;20032;-75
2023/08/15 10:12:40;;;;;;;1.55;0.93;;;;;;;28.37;86.93;100636.78;5216350;28;20410;-75
2023/08/15 10:15:11;;;;;;;2.17;1.02;;;;;;;28.06;86.44;100632.97;5220195;28;20516;-75
2023/08/15 10:17:42;;;;;;;1.50;0.80;;;;;;;28.16;89.22;100633.66;5224462;28;20058;-74
2023/08/15 10:20:18;;;;;;;1.42;0.73;;;;;;;28.19;89.41;100633.34;5230175;28;20025;-75
2023/08/15 10:22:57;;;;;;;1.90;1.05;;;;;;;28.20;85.41;100635.03;5227708;28;20036;-73
2023/08/15 10:25:28;;;;;;;2.65;1.25;;;;;;;27.85;88.83;100643.34;5224733;28;20059;-74
2023/08/15 10:27:58;;;;;;;3.97;1.10;;;;;;;28.18;87.15;100634.38;5230812;28;20471;-74
2023/08/15 10:30:33;;;;;;;1.98;1.10;;;;;;;28.11;87.72;100630.63;5224423;28;20547;-73
2023/08/15 10:33:12;;;;;;;3.27;0.90;;;;;;;28.01;86.83;100634.47;5226663;28;20499;-74
2023/08/15 10:35:54;;;;;;;1.33;0.75;;;;;;;27.90;87.70;100632.94;5223674;28;20371;-74
2023/08/15 10:38:26;;;;;;;6.00;1.63;;;;;;;27.82;85.54;100640.13;5221828;28;20399;-73
2023/08/15 10:41:17;;;;;;;1.10;0.80;;;;;;;27.93;90.02;100634.47;5221051;28;20113;-75
2023/08/15 10:43:49;;;;;;;1.45;0.82;;;;;;;27.98;87.90;100637.50;5226967;28;20484;-73
2023/08/15 10:46:26;;;;;;;1.55;0.90;;;;;;;27.77;88.38;100639.78;5224707;28;20036;-74
2023/08/15 10:49:06;;;;;;;2.10;0.93;;;;;;;27.93;86.12;100639.84;5225022;28;20040;-74
2023/08/15 10:51:38;;;;;;;3.30;1.20;;;;;;;27.92;89.60;100640.84;5233597;28;20639;-74
2023/08/15 10:54:13;;;;;;;2.05;1.10;;;;;;;28.05;88.79;100642.06;5230948;28;20044;-75
2023/08/15 10:56:44;;;;;;;2.42;1.13;;;;;;;28.21;90.57;100649.31;5229611;28;20039;-75
2023/08/15 10:59:17;;;;;;;3.50;1.05;;;;;;;28.07;87.57;100642.72;5226458;28;20025;-75
2023/08/15 11:01:48;;;;;;;3.08;0.90;;;;;;;27.95;87.82;100641.34;5232151;28;20029;-72
2023/08/15 11:04:19;;;;;;;1.38;0.80;;;;;;;27.88;88.25;100651.06;5232468;28;20184;-74
2023/08/15 11:06:52;;;;;;;3.80;0.90;;;;;;;27.92;85.13;100646.22;5232064;28;20020;-74
2023/08/15 11:09:29;;;;;;;1.50;0.60;;;;;;;27.97;85.57;100654.63;5234675;28;20043;-74
2023/08/15 11:12:05;;;;;;;1.25;0.70;;;;;;;28.11;86.55;100656.69;5226580;28;20032;-75
2023/08/15 11:14:35;;;;;;;0.88;0.60;;;;;;;27.84;87.57;100656.94;5223336;28;20067;-74
2023/08/15 11:17:06;;;;;;;1.30;0.70;;;;;;;28.19;89.08;100660.25;5227564;28;20029;-75
2023/08/15 11:19:37;;;;;;;1.88;0.82;;;;;;;28.00;84.20;100667.75;5228997;28;20131;-74
2023/08/15 11:22:07;;;;;;;3.78;0.77;;;;;;;28.11;86.61;100662.06;5227977;28;20117;-74
2023/08/15 11:24:37;;;;;;;2.97;0.93;;;;;;;28.16;85.87;100657.84;5226705;28;20494;-75
2023/08/15 11:27:08;;;;;;;1.35;0.90;;;;;;;28.08;84.33;100652.47;5222159;28;20042;-75
2023/08/15 11:29:39;;;;;;;1.40;0.82;;;;;;;27.94;85.01;100655.78;5212700;28;20044;-75
2023/08/15 11:32:10;;;;;;;1.90;0.80;;;;;;;28.18;83.43;100653.19;5222141;28;20029;-75
2023/08/15 11:34:41;;;;;;;1.13;0.80;;;;;;;28.23;86.24;100649.97;5221585;28;20067;-75
2023/08/15 11:37:11;;;;;;;1.33;0.80;;;;;;;28.33;81.66;100650.72;5213964;28;20037;-73